Time;durP1;ratioP1;P1;durP2;ratioP2;P2;SDS_P1;SDS_P2;PMS_P1;PMS_P2;Temp;Humidity;BMP_temperature;BMP_pressure;BME280_temperature;BME280_humidity;BME280_pressure;Samples;Min_cycle;Max_cycle;Signal;HPM_P1;HPM_P2
2023/07/11 00:02:17;;;;;;;;;;;20.40;99.90;;;;;;2585576;54;21878;31
2023/07/11 00:04:54;;;;;;;;;;;20.40;99.90;;;;;;2604229;46;20049;31
2023/07/11 00:07:31;;;;;;;;;;;20.30;99.90;;;;;;2594666;46;19935;31
2023/07/11 00:10:06;;;;;;;;;;;20.30;99.90;;;;;;2584726;54;19949;31
2023/07/11 00:12:41;;;;;;;;;;;20.40;99.90;;;;;;2602838;46;20837;31
2023/07/11 00:15:17;;;;;;;;;;;20.20;99.90;;;;;;2585924;54;19941;31
2023/07/11 00:17:55;;;;;;;;;;;20.30;99.90;;;;;;2585789;54;20720;31
2023/07/11 00:20:30;;;;;;;;;;;20.20;99.90;;;;;;2585700;54;20690;31
2023/07/11 00:23:06;;;;;;;;;;;20.10;99.90;;;;;;2585523;54;20808;31
2023/07/11 00:25:46;;;;;;;;;;;20.10;99.90;;;;;;2604218;46;19941;31
2023/07/11 00:28:23;;;;;;;;;;;20.10;99.90;;;;;;2604269;46;20841;31
2023/07/11 00:31:01;;;;;;;;;;;20.10;99.90;;;;;;2603755;46;20715;31
2023/07/11 00:33:39;;;;;;;;;;;20.00;99.90;;;;;;2603867;46;19934;31
2023/07/11 00:36:15;;;;;;;;;;;20.00;99.90;;;;;;2584578;54;20808;31
2023/07/11 00:38:50;;;;;;;;;;;19.90;99.90;;;;;;2584657;54;19954;31
2023/07/11 00:41:31;;;;;;;;;;;19.90;99.90;;;;;;2602908;46;19941;31
2023/07/11 00:44:06;;;;;;;;;;;19.90;99.90;;;;;;2592566;47;20808;31
2023/07/11 00:46:46;;;;;;;;;;;19.80;99.90;;;;;;2604089;47;19935;31
2023/07/11 00:49:24;;;;;;;;;;;19.90;99.90;;;;;;2682714;39;21065;31
2023/07/11 00:51:59;;;;;;;;;;;19.80;99.90;;;;;;2584510;54;20792;31
2023/07/11 00:54:35;;;;;;;;;;;19.80;99.90;;;;;;2603993;47;19935;31
2023/07/11 00:57:09;;;;;;;;;;;19.80;99.90;;;;;;2585893;54;19957;31
2023/07/11 00:59:44;;;;;;;;;;;19.80;99.90;;;;;;2603702;47;19934;31
2023/07/11 01:02:22;;;;;;;;;;;19.80;99.90;;;;;;2585451;54;19934;31
2023/07/11 01:05:03;;;;;;;;;;;19.70;99.90;;;;;;2585321;54;20840;31
2023/07/11 01:07:40;;;;;;;;;;;19.60;99.90;;;;;;2604281;47;20837;31
2023/07/11 01:10:17;;;;;;;;;;;19.60;99.90;;;;;;2584514;54;19960;31
2023/07/11 01:12:52;;;;;;;;;;;19.60;99.90;;;;;;2604034;47;20723;31
2023/07/11 01:15:27;;;;;;;;;;;19.60;99.90;;;;;;2604234;47;19941;31
2023/07/11 01:18:02;;;;;;;;;;;19.50;99.90;;;;;;2585153;54;19942;31
2023/07/11 01:20:37;;;;;;;;;;;19.50;99.90;;;;;;2604008;47;19997;31
2023/07/11 01:23:14;;;;;;;;;;;19.50;99.90;;;;;;2586260;54;19940;31
2023/07/11 01:25:48;;;;;;;;;;;19.40;99.90;;;;;;2604389;46;19934;31
2023/07/11 01:28:25;;;;;;;;;;;19.40;99.90;;;;;;2604467;46;19934;31
2023/07/11 01:31:03;;;;;;;;;;;19.40;99.90;;;;;;2586218;54;20722;31
2023/07/11 01:33:38;;;;;;;;;;;19.40;99.90;;;;;;2586405;54;19960;31
2023/07/11 01:36:13;;;;;;;;;;;19.30;99.90;;;;;;2585293;54;20004;31
2023/07/11 01:38:51;;;;;;;;;;;19.30;99.90;;;;;;2586046;54;20695;31
2023/07/11 01:41:26;;;;;;;;;;;19.30;99.90;;;;;;2586123;54;19941;31
2023/07/11 01:44:01;;;;;;;;;;;19.20;99.90;;;;;;2586079;54;20888;31
2023/07/11 01:46:36;;;;;;;;;;;19.30;99.90;;;;;;2604384;46;19960;31
2023/07/11 01:49:12;;;;;;;;;;;19.30;99.90;;;;;;2586337;54;19934;31
2023/07/11 01:51:47;;;;;;;;;;;19.20;99.90;;;;;;2586073;54;19934;31
2023/07/11 01:54:25;;;;;;;;;;;19.20;99.90;;;;;;2585889;54;19993;31
2023/07/11 01:57:00;;;;;;;;;;;19.10;99.90;;;;;;2586188;54;20040;31
2023/07/11 01:59:35;;;;;;;;;;;19.20;99.90;;;;;;2604406;46;19935;31
2023/07/11 02:02:08;;;;;;;;;;;19.10;99.90;;;;;;2585966;54;20792;31
2023/07/11 02:04:43;;;;;;;;;;;19.10;99.90;;;;;;2604734;46;19935;31
2023/07/11 02:07:21;;;;;;;;;;;19.10;99.90;;;;;;2585919;54;19934;31
2023/07/11 02:09:58;;;;;;;;;;;19.00;99.90;;;;;;2604798;46;20768;31
2023/07/11 02:12:33;;;;;;;;;;;19.50;99.90;;;;;;2585902;54;19946;31
2023/07/11 02:15:08;;;;;;;;;;;19.10;99.90;;;;;;2604488;46;19942;31
2023/07/11 02:17:43;;;;;;;;;;;19.00;99.90;;;;;;2604275;46;20831;31
2023/07/11 02:20:16;;;;;;;;;;;19.00;99.90;;;;;;2585054;54;19957;31
2023/07/11 02:22:51;;;;;;;;;;;18.80;99.90;;;;;;2585948;54;20842;31
2023/07/11 02:25:30;;;;;;;;;;;18.90;99.90;;;;;;2586054;54;20020;31
2023/07/11 02:28:05;;;;;;;;;;;18.90;99.90;;;;;;2586261;54;22310;31
2023/07/11 02:30:42;;;;;;;;;;;18.90;99.90;;;;;;2604711;46;20863;31
2023/07/11 02:33:15;;;;;;;;;;;18.80;99.90;;;;;;2604772;46;20804;31
2023/07/11 02:35:51;;;;;;;;;;;18.80;99.90;;;;;;2586279;54;20728;31
2023/07/11 02:38:24;;;;;;;;;;;18.80;99.90;;;;;;2604682;46;20858;31
2023/07/11 02:41:03;;;;;;;;;;;18.80;99.90;;;;;;2585599;54;20849;31
2023/07/11 02:43:40;;;;;;;;;;;18.80;99.90;;;;;;2604990;46;22382;31
2023/07/11 02:46:16;;;;;;;;;;;18.80;99.90;;;;;;2604548;46;19935;31
2023/07/11 02:48:55;;;;;;;;;;;18.70;99.90;;;;;;2604665;46;20875;31
2023/07/11 02:51:30;;;;;;;;;;;18.70;99.90;;;;;;2585955;54;19935;31
2023/07/11 02:54:04;;;;;;;;;;;18.70;99.90;;;;;;2604565;46;19937;31
2023/07/11 02:56:45;;;;;;;;;;;18.70;99.90;;;;;;2604314;46;20847;31
2023/07/11 02:59:19;;;;;;;;;;;18.70;99.90;;;;;;2586009;54;20850;31
2023/07/11 03:01:56;;;;;;;;;;;18.60;99.90;;;;;;2585983;54;19940;31
2023/07/11 03:04:31;;;;;;;;;;;18.60;99.90;;;;;;2585133;54;20016;31
2023/07/11 03:07:07;;;;;;;;;;;18.60;99.90;;;;;;2584987;54;20903;31
2023/07/11 03:09:43;;;;;;;;;;;18.60;99.90;;;;;;2604351;46;19935;31
2023/07/11 03:12:21;;;;;;;;;;;18.60;99.90;;;;;;2585746;54;19935;31
2023/07/11 03:14:58;;;;;;;;;;;18.60;99.90;;;;;;2604621;46;20004;31
2023/07/11 03:17:45;;;;;;;;;;;18.60;99.90;;;;;;2586283;54;22283;31
2023/07/11 03:20:19;;;;;;;;;;;18.70;99.90;;;;;;2585743;54;20747;31
2023/07/11 03:22:54;;;;;;;;;;;18.60;99.90;;;;;;2585555;54;19934;31
2023/07/11 03:25:28;;;;;;;;;;;18.60;99.90;;;;;;2585923;54;22341;31
2023/07/11 03:28:05;;;;;;;;;;;18.60;99.90;;;;;;2604389;46;19934;31
2023/07/11 03:30:40;;;;;;;;;;;18.60;99.90;;;;;;2586015;54;20732;31
2023/07/11 03:33:18;;;;;;;;;;;18.70;99.90;;;;;;2586004;54;20713;31
2023/07/11 03:35:55;;;;;;;;;;;18.70;99.90;;;;;;2596532;46;20807;31
2023/07/11 03:38:30;;;;;;;;;;;18.80;99.90;;;;;;2683265;39;21014;31
2023/07/11 03:41:06;;;;;;;;;;;18.90;99.90;;;;;;2584868;54;19935;31
2023/07/11 03:43:43;;;;;;;;;;;18.90;99.90;;;;;;2604218;46;19941;31
2023/07/11 03:46:17;;;;;;;;;;;19.10;99.90;;;;;;2585667;54;19936;31
2023/07/11 03:48:56;;;;;;;;;;;19.20;99.90;;;;;;2702591;39;20938;31
2023/07/11 03:51:31;;;;;;;;;;;19.20;99.90;;;;;;2585793;54;20810;31
2023/07/11 03:54:05;;;;;;;;;;;19.30;99.90;;;;;;2702337;39;22322;31
2023/07/11 03:56:44;;;;;;;;;;;19.60;99.90;;;;;;2585095;54;20843;31
2023/07/11 03:59:17;;;;;;;;;;;19.60;99.90;;;;;;2604339;46;21813;31
2023/07/11 04:01:54;;;;;;;;;;;19.60;99.90;;;;;;2585708;54;20899;31
2023/07/11 04:04:34;;;;;;;;;;;19.60;99.90;;;;;;2603996;46;20849;31
2023/07/11 04:07:10;;;;;;;;;;;19.70;99.90;;;;;;2585926;54;19935;31
2023/07/11 04:09:43;;;;;;;;;;;19.80;99.90;;;;;;2585869;54;19934;31
2023/07/11 04:12:21;;;;;;;;;;;19.70;99.90;;;;;;2584786;54;20857;31
2023/07/11 04:14:56;;;;;;;;;;;20.10;99.90;;;;;;2585901;54;20794;31
2023/07/11 04:17:31;;;;;;;;;;;20.30;99.90;;;;;;2585741;54;20809;31
2023/07/11 04:20:10;;;;;;;;;;;20.50;99.90;;;;;;2585671;54;20759;31
2023/07/11 04:22:47;;;;;;;;;;;20.70;99.90;;;;;;2584857;54;21867;31
2023/07/11 04:25:32;;;;;;;;;;;20.90;99.90;;;;;;2584462;54;20812;31
2023/07/11 04:28:08;;;;;;;;;;;21.00;99.90;;;;;;2683179;39;20998;31
2023/07/11 04:30:46;;;;;;;;;;;21.20;99.90;;;;;;2585276;54;20898;31
2023/07/11 04:33:19;;;;;;;;;;;21.40;99.90;;;;;;2585756;54;19961;31
2023/07/11 04:36:14;;;;;;;;;;;21.50;99.90;;;;;;2604126;46;19968;31
2023/07/11 04:38:47;;;;;;;;;;;21.70;99.90;;;;;;2683624;39;22241;31
2023/07/11 04:41:29;;;;;;;;;;;21.90;99.90;;;;;;2585336;54;19946;31
2023/07/11 04:44:03;;;;;;;;;;;21.90;99.90;;;;;;2585408;54;19941;31
2023/07/11 04:46:37;;;;;;;;;;;21.90;99.90;;;;;;2584707;54;19934;31
2023/07/11 04:49:12;;;;;;;;;;;21.90;99.90;;;;;;2604246;47;19983;31
2023/07/11 04:51:50;;;;;;;;;;;21.80;99.90;;;;;;2585412;54;20724;31
2023/07/11 04:54:25;;;;;;;;;;;21.80;99.90;;;;;;2585161;54;19941;31
2023/07/11 04:56:59;;;;;;;;;;;21.80;99.90;;;;;;2586190;54;21161;31
2023/07/11 04:59:33;;;;;;;;;;;21.90;99.90;;;;;;2585872;54;20721;31
2023/07/11 05:02:07;;;;;;;;;;;22.00;99.90;;;;;;2586171;54;20703;31
2023/07/11 05:04:41;;;;;;;;;;;22.00;99.90;;;;;;2586096;54;19934;31
2023/07/11 05:07:21;;;;;;;;;;;21.90;99.90;;;;;;2604330;46;19934;31
2023/07/11 05:09:54;;;;;;;;;;;21.90;99.90;;;;;;2586588;54;22271;31
2023/07/11 05:12:30;;;;;;;;;;;21.80;99.90;;;;;;2586230;54;20799;31
2023/07/11 05:15:11;;;;;;;;;;;22.10;99.90;;;;;;2586598;54;19934;31
2023/07/11 05:17:46;;;;;;;;;;;22.20;99.90;;;;;;2595183;46;20691;31
2023/07/11 05:20:19;;;;;;;;;;;22.40;99.90;;;;;;2683438;39;22332;31
2023/07/11 05:22:59;;;;;;;;;;;22.30;99.90;;;;;;2604187;46;19939;31
2023/07/11 05:25:33;;;;;;;;;;;22.30;99.90;;;;;;2604746;46;19961;31
2023/07/11 05:28:13;;;;;;;;;;;22.40;99.90;;;;;;2586271;54;19941;31
2023/07/11 05:30:46;;;;;;;;;;;22.40;99.90;;;;;;2585986;54;20832;31
2023/07/11 05:33:23;;;;;;;;;;;22.30;99.90;;;;;;2585970;54;20019;31
2023/07/11 05:39:12;;;;;;;;;;;22.10;99.90;;;;;;2585750;54;20791;31
2023/07/11 05:41:51;;;;;;;;;;;22.40;99.90;;;;;;2585847;54;20859;31
2023/07/11 05:44:23;;;;;;;;;;;;;;;;;;2604584;46;19957;31
2023/07/11 05:46:58;;;;;;;;;;;22.70;99.90;;;;;;2586033;54;20843;31
2023/07/11 05:49:35;;;;;;;;;;;23.10;99.90;;;;;;2586005;54;19935;31
2023/07/11 05:52:10;;;;;;;;;;;23.30;99.90;;;;;;2585994;54;19935;31
2023/07/11 05:54:50;;;;;;;;;;;23.60;99.90;;;;;;2586060;54;19934;31
2023/07/11 05:57:24;;;;;;;;;;;24.00;99.90;;;;;;2585060;54;20667;31
2023/07/11 05:59:59;;;;;;;;;;;24.10;99.90;;;;;;2601562;46;20774;31
2023/07/11 06:02:45;;;;;;;;;;;24.50;99.90;;;;;;2586183;54;20828;31
2023/07/11 06:05:22;;;;;;;;;;;24.40;99.90;;;;;;2585896;54;19961;31
2023/07/11 06:07:56;;;;;;;;;;;24.70;99.90;;;;;;2604520;46;21109;31
2023/07/11 06:10:34;;;;;;;;;;;24.80;99.90;;;;;;2585962;54;19965;31
2023/07/11 06:13:09;;;;;;;;;;;25.20;99.90;;;;;;2586355;54;20708;31
2023/07/11 06:15:44;;;;;;;;;;;25.50;99.90;;;;;;2585590;54;20000;31
2023/07/11 06:18:19;;;;;;;;;;;24.30;99.90;;;;;;2585983;54;19938;31
2023/07/11 06:20:52;;;;;;;;;;;25.80;99.90;;;;;;2585939;54;20009;31
2023/07/11 06:23:27;;;;;;;;;;;26.10;99.90;;;;;;2702520;39;22258;31
2023/07/11 06:26:04;;;;;;;;;;;26.30;99.90;;;;;;2604720;46;20874;31
2023/07/11 06:28:42;;;;;;;;;;;26.50;99.90;;;;;;2586039;54;19938;31
2023/07/11 06:31:20;;;;;;;;;;;26.70;99.90;;;;;;2604264;46;20782;31
2023/07/11 06:33:55;;;;;;;;;;;26.90;99.90;;;;;;2604418;46;20818;31
2023/07/11 06:36:33;;;;;;;;;;;27.10;99.90;;;;;;2702245;39;21145;31
2023/07/11 06:39:07;;;;;;;;;;;27.10;99.90;;;;;;2601500;46;21877;31
2023/07/11 06:41:45;;;;;;;;;;;27.30;99.90;;;;;;2604119;46;19935;31
2023/07/11 06:44:21;;;;;;;;;;;27.50;99.90;;;;;;2604262;46;21109;31
2023/07/11 06:46:55;;;;;;;;;;;27.70;99.90;;;;;;2584704;54;20916;31
2023/07/11 06:49:30;;;;;;;;;;;28.00;99.90;;;;;;2603749;46;20725;31
2023/07/11 06:52:07;;;;;;;;;;;28.10;99.90;;;;;;2585768;54;20824;31
2023/07/11 06:54:40;;;;;;;;;;;28.10;99.90;;;;;;2585312;54;20809;31
2023/07/11 06:57:20;;;;;;;;;;;28.00;99.90;;;;;;2585514;54;19934;31
2023/07/11 07:00:00;;;;;;;;;;;27.90;99.90;;;;;;2604004;46;19935;31
2023/07/11 07:02:37;;;;;;;;;;;28.00;99.90;;;;;;2585218;54;20854;31
2023/07/11 07:08:03;;;;;;;;;;;28.30;99.90;;;;;;2602585;46;19943;31
2023/07/11 07:10:47;;;;;;;;;;;28.60;99.90;;;;;;2585602;54;19935;31
2023/07/11 07:13:30;;;;;;;;;;;28.70;99.90;;;;;;2585330;54;19962;31
2023/07/11 07:16:05;;;;;;;;;;;28.80;99.90;;;;;;2584991;54;19934;31
2023/07/11 07:18:45;;;;;;;;;;;28.80;99.90;;;;;;2601082;46;19949;31
2023/07/11 07:21:23;;;;;;;;;;;28.80;99.90;;;;;;2585573;54;19935;31
2023/07/11 07:24:02;;;;;;;;;;;28.60;99.90;;;;;;2585302;54;20004;31
2023/07/11 07:26:41;;;;;;;;;;;28.00;99.90;;;;;;2596870;46;19957;31
2023/07/11 07:29:30;;;;;;;;;;;28.40;99.90;;;;;;2604094;46;19964;31
2023/07/11 07:32:10;;;;;;;;;;;28.60;99.90;;;;;;2584568;54;19949;31
2023/07/11 07:34:46;;;;;;;;;;;28.80;99.90;;;;;;2584948;54;20814;31
2023/07/11 07:37:22;;;;;;;;;;;28.90;99.90;;;;;;2603557;46;19934;31
2023/07/11 07:40:01;;;;;;;;;;;29.00;99.90;;;;;;2702047;39;20998;31
2023/07/11 07:42:43;;;;;;;;;;;29.20;99.90;;;;;;2584964;54;20790;31
2023/07/11 07:45:24;;;;;;;;;;;29.40;99.90;;;;;;2603332;46;20886;31
2023/07/11 07:50:36;;;;;;;;;;;29.70;99.90;;;;;;2585486;54;20819;31
2023/07/11 07:53:12;;;;;;;;;;;30.00;99.90;;;;;;2585241;54;20793;31
2023/07/11 07:55:48;;;;;;;;;;;30.00;99.90;;;;;;2588869;46;20805;31
2023/07/11 07:58:30;;;;;;;;;;;30.20;99.90;;;;;;2585086;54;19934;31
2023/07/11 08:01:24;;;;;;;;;;;30.30;99.90;;;;;;2603325;46;19934;31
2023/07/11 08:04:02;;;;;;;;;;;30.30;99.90;;;;;;2585643;54;21068;31
2023/07/11 08:06:43;;;;;;;;;;;30.20;99.90;;;;;;2585201;54;19935;31
2023/07/11 08:09:18;;;;;;;;;;;30.30;99.90;;;;;;2585077;54;20732;31
2023/07/11 08:14:38;;;;;;;;;;;30.60;99.90;;;;;;2585359;54;20791;31
2023/07/11 08:17:15;;;;;;;;;;;30.70;99.70;;;;;;2585379;54;20722;31
2023/07/11 08:19:51;;;;;;;;;;;30.80;98.90;;;;;;2604151;46;20794;31
2023/07/11 08:22:37;;;;;;;;;;;30.90;98.70;;;;;;2603911;46;20885;31
2023/07/11 08:25:14;;;;;;;;;;;31.00;97.70;;;;;;2584356;54;20816;31
2023/07/11 08:27:49;;;;;;;;;;;32.00;97.60;;;;;;2584350;54;19942;31
2023/07/11 08:30:28;;;;;;;;;;;30.90;97.80;;;;;;2603572;46;20929;31
2023/07/11 08:33:02;;;;;;;;;;;31.00;98.00;;;;;;2585209;54;20786;31
2023/07/11 08:35:40;;;;;;;;;;;31.10;96.40;;;;;;2585166;54;20674;31
2023/07/11 08:38:18;;;;;;;;;;;31.00;95.60;;;;;;2603924;46;21820;31
2023/07/11 08:40:54;;;;;;;;;;;31.00;95.50;;;;;;2603613;46;20713;31
2023/07/11 08:43:32;;;;;;;;;;;31.20;95.20;;;;;;2603375;46;20657;31
2023/07/11 08:46:09;;;;;;;;;;;31.30;94.40;;;;;;2585268;54;20804;31
2023/07/11 08:48:57;;;;;;;;;;;31.40;94.70;;;;;;2585604;54;19981;31
2023/07/11 08:51:43;;;;;;;;;;;31.60;94.30;;;;;;2589178;47;20737;31
2023/07/11 08:54:23;;;;;;;;;;;31.60;93.50;;;;;;2603311;47;20443;31
2023/07/11 08:56:59;;;;;;;;;;;31.10;92.50;;;;;;2603473;47;20763;31
2023/07/11 08:59:39;;;;;;;;;;;31.70;92.10;;;;;;2603766;47;19956;31
2023/07/11 09:02:20;;;;;;;;;;;31.80;90.80;;;;;;2585186;54;20807;31
2023/07/11 09:04:55;;;;;;;;;;;31.90;91.50;;;;;;2584746;54;20401;31
2023/07/11 09:07:36;;;;;;;;;;;32.00;91.40;;;;;;2584140;54;20955;31
2023/07/11 09:10:31;;;;;;;;;;;31.70;91.20;;;;;;2603367;47;20769;31
2023/07/11 09:13:24;;;;;;;;;;;31.70;91.00;;;;;;2603403;47;20802;31
2023/07/11 09:16:08;;;;;;;;;;;31.80;89.40;;;;;;2682706;39;20327;31
2023/07/11 09:18:47;;;;;;;;;;;31.90;89.20;;;;;;2584129;54;20024;31
2023/07/11 09:21:23;;;;;;;;;;;32.00;88.00;;;;;;2701453;39;20332;31
2023/07/11 09:24:02;;;;;;;;;;;32.10;88.30;;;;;;2584745;54;19994;31
2023/07/11 09:26:50;;;;;;;;;;;32.10;89.00;;;;;;2585807;47;19934;31
2023/07/11 09:29:24;;;;;;;;;;;32.00;86.90;;;;;;2585033;54;20654;31
2023/07/11 09:31:59;;;;;;;;;;;31.90;85.90;;;;;;2584817;54;20698;31
2023/07/11 09:34:36;;;;;;;;;;;32.10;84.80;;;;;;2603275;47;20724;31
2023/07/11 09:37:15;;;;;;;;;;;32.20;85.90;;;;;;2584627;54;20636;31
2023/07/11 09:39:50;;;;;;;;;;;32.30;87.60;;;;;;2584021;54;19969;31
2023/07/11 09:42:32;;;;;;;;;;;32.50;85.10;;;;;;2584853;54;19941;31
2023/07/11 09:45:12;;;;;;;;;;;32.50;85.70;;;;;;2585788;54;19964;31
2023/07/11 09:47:54;;;;;;;;;;;32.50;84.00;;;;;;2586035;54;19938;31
2023/07/11 09:50:38;;;;;;;;;;;32.50;83.20;;;;;;2586038;54;19938;31
2023/07/11 09:53:23;;;;;;;;;;;32.50;82.80;;;;;;2586133;54;19964;31
2023/07/11 09:56:01;;;;;;;;;;;32.60;83.60;;;;;;2604236;46;20738;31
2023/07/11 09:58:49;;;;;;;;;;;32.60;84.10;;;;;;2772696;31;20439;31
2023/07/11 10:01:28;;;;;;;;;;;32.50;81.80;;;;;;2585324;54;20409;31
2023/07/11 10:04:06;;;;;;;;;;;32.40;82.50;;;;;;2585607;54;19935;31
2023/07/11 10:06:44;;;;;;;;;;;32.30;79.30;;;;;;2585246;54;20709;31
2023/07/11 10:09:24;;;;;;;;;;;32.20;77.00;;;;;;2604519;46;20021;31
2023/07/11 10:11:58;;;;;;;;;;;32.20;80.30;;;;;;2604199;46;19997;31
2023/07/11 10:17:25;;;;;;;;;;;32.30;79.70;;;;;;2604008;46;20741;31
2023/07/11 10:20:06;;;;;;;;;;;32.20;79.00;;;;;;2585397;54;19938;31
2023/07/11 10:22:57;;;;;;;;;;;32.30;79.40;;;;;;2603856;46;19934;31
2023/07/11 10:25:42;;;;;;;;;;;32.40;76.90;;;;;;2585296;54;19994;31
2023/07/11 10:28:21;;;;;;;;;;;32.30;77.20;;;;;;2585161;54;19935;31
2023/07/11 10:30:56;;;;;;;;;;;32.40;76.30;;;;;;2585564;54;20904;31
2023/07/11 10:33:40;;;;;;;;;;;32.40;75.80;;;;;;2585707;54;20760;31
2023/07/11 10:36:35;;;;;;;;;;;32.40;78.30;;;;;;2683568;39;21026;31
2023/07/11 10:39:13;;;;;;;;;;;32.30;76.70;;;;;;2584719;54;19934;31
2023/07/11 10:41:49;;;;;;;;;;;32.30;76.10;;;;;;2584722;54;19968;31
2023/07/11 10:44:29;;;;;;;;;;;32.30;73.90;;;;;;2604162;46;19935;31
2023/07/11 10:47:08;;;;;;;;;;;32.40;73.60;;;;;;2585333;54;20731;31
2023/07/11 10:49:44;;;;;;;;;;;32.10;76.40;;;;;;2585530;54;19938;31
2023/07/11 10:52:25;;;;;;;;;;;31.90;74.20;;;;;;2585135;54;21491;31
2023/07/11 10:55:02;;;;;;;;;;;31.90;75.60;;;;;;2603779;46;20025;31
2023/07/11 10:57:38;;;;;;;;;;;31.80;76.70;;;;;;2594630;46;20024;31
2023/07/11 11:00:22;;;;;;;;;;;31.80;77.00;;;;;;2584937;54;19942;31
2023/07/11 11:03:00;;;;;;;;;;;31.90;76.10;;;;;;2604524;46;21078;31
2023/07/11 11:05:37;;;;;;;;;;;31.80;75.30;;;;;;2585069;54;20077;31
2023/07/11 11:08:19;;;;;;;;;;;31.70;74.80;;;;;;2604129;46;19946;31
2023/07/11 11:10:55;;;;;;;;;;;31.50;75.80;;;;;;2585268;54;20774;31
2023/07/11 11:13:32;;;;;;;;;;;31.40;77.70;;;;;;2603965;46;19941;31
2023/07/11 11:16:12;;;;;;;;;;;31.30;79.60;;;;;;2603716;46;19997;31
2023/07/11 11:18:49;;;;;;;;;;;31.30;78.30;;;;;;2584588;54;20779;31
2023/07/11 11:21:25;;;;;;;;;;;31.30;79.50;;;;;;2683274;39;20474;31
2023/07/11 11:24:17;;;;;;;;;;;31.40;74.30;;;;;;2585350;54;19941;31
2023/07/11 11:27:01;;;;;;;;;;;31.50;77.00;;;;;;2585562;54;20044;31
2023/07/11 11:29:40;;;;;;;;;;;31.40;76.30;;;;;;2604116;46;20763;31
2023/07/11 11:32:16;;;;;;;;;;;31.40;75.50;;;;;;2603846;46;20810;31
2023/07/11 11:34:53;;;;;;;;;;;31.40;77.30;;;;;;2584754;54;20812;31
2023/07/11 11:37:44;;;;;;;;;;;31.50;78.40;;;;;;2585074;54;19997;31
2023/07/11 11:40:24;;;;;;;;;;;31.40;76.10;;;;;;2584743;54;20655;31
2023/07/11 11:42:59;;;;;;;;;;;31.40;73.20;;;;;;2603730;46;20802;31
2023/07/11 11:45:35;;;;;;;;;;;31.30;78.90;;;;;;2683051;39;21383;31
2023/07/11 11:48:14;;;;;;;;;;;31.20;74.30;;;;;;2603927;46;19935;31
2023/07/11 11:50:54;;;;;;;;;;;31.10;74.10;;;;;;2603493;46;20859;31
2023/07/11 11:53:34;;;;;;;;;;;31.10;73.40;;;;;;2585491;54;19941;31
2023/07/11 11:56:12;;;;;;;;;;;31.10;74.90;;;;;;2585375;54;19934;31
2023/07/11 11:59:00;;;;;;;;;;;31.00;74.50;;;;;;2585161;54;19938;31
2023/07/11 12:01:37;;;;;;;;;;;31.20;78.00;;;;;;2596056;46;20524;31
2023/07/11 12:04:15;;;;;;;;;;;31.10;76.20;;;;;;2584966;54;21462;31
2023/07/11 12:06:51;;;;;;;;;;;31.10;74.40;;;;;;2585123;54;20025;31
2023/07/11 12:09:29;;;;;;;;;;;31.10;76.00;;;;;;2585134;54;19938;31
2023/07/11 12:12:06;;;;;;;;;;;31.00;76.50;;;;;;2585121;54;20048;31
2023/07/11 12:14:44;;;;;;;;;;;31.00;75.40;;;;;;2603805;46;20885;31
2023/07/11 12:17:22;;;;;;;;;;;31.10;75.70;;;;;;2585147;54;19942;31
2023/07/11 12:20:00;;;;;;;;;;;31.00;76.00;;;;;;2585355;54;20894;31
2023/07/11 12:22:38;;;;;;;;;;;31.00;75.30;;;;;;2700288;39;21506;31
2023/07/11 12:25:20;;;;;;;;;;;31.00;73.90;;;;;;2603550;46;20709;31
2023/07/11 12:28:01;;;;;;;;;;;31.10;72.50;;;;;;2585315;54;19958;31
2023/07/11 12:30:42;;;;;;;;;;;27.60;72.40;;;;;;2584327;54;19949;31
2023/07/11 12:33:25;;;;;;;;;;;31.00;74.70;;;;;;2584855;54;20698;31
2023/07/11 12:36:02;;;;;;;;;;;30.90;75.50;;;;;;2584961;54;19965;31
2023/07/11 12:38:39;;;;;;;;;;;31.00;75.40;;;;;;2603455;46;19958;31
2023/07/11 12:41:24;;;;;;;;;;;28.90;73.20;;;;;;2594985;46;20732;31
2023/07/11 12:44:12;;;;;;;;;;;30.80;74.70;;;;;;2603151;46;19939;31
2023/07/11 12:46:46;;;;;;;;;;;30.90;73.20;;;;;;2584962;54;19941;31
2023/07/11 12:49:23;;;;;;;;;;;30.90;74.20;;;;;;2585276;54;19961;31
2023/07/11 12:52:06;;;;;;;;;;;30.80;73.70;;;;;;2603349;47;20818;31
2023/07/11 12:54:42;;;;;;;;;;;30.90;74.80;;;;;;2585333;54;19935;31
2023/07/11 12:57:19;;;;;;;;;;;30.70;71.90;;;;;;2584790;54;19934;31
2023/07/11 12:59:54;;;;;;;;;;;30.60;72.10;;;;;;2603955;47;19986;31
2023/07/11 13:02:32;;;;;;;;;;;30.50;73.10;;;;;;2603187;47;19935;31
2023/07/11 13:05:12;;;;;;;;;;;30.50;73.70;;;;;;2584960;54;20683;31
2023/07/11 13:07:45;;;;;;;;;;;30.40;72.30;;;;;;2585005;54;20045;31
2023/07/11 13:10:31;;;;;;;;;;;30.50;77.70;;;;;;2584359;54;20718;31
2023/07/11 13:13:15;;;;;;;;;;;30.50;74.60;;;;;;2603488;47;20079;31
2023/07/11 13:15:53;;;;;;;;;;;30.60;75.00;;;;;;2603256;47;20909;31
2023/07/11 13:18:32;;;;;;;;;;;30.60;76.20;;;;;;2584879;54;20665;31
2023/07/11 13:21:06;;;;;;;;;;;30.60;74.60;;;;;;2586309;54;21047;31
2023/07/11 13:23:41;;;;;;;;;;;30.60;74.80;;;;;;2585114;54;21188;31
2023/07/11 13:26:21;;;;;;;;;;;30.60;72.50;;;;;;2585687;54;20880;31
2023/07/11 13:29:09;;;;;;;;;;;30.60;75.20;;;;;;2584972;54;20850;31
2023/07/11 13:31:45;;;;;;;;;;;30.60;74.10;;;;;;2585475;54;20839;31
2023/07/11 13:34:23;;;;;;;;;;;30.60;73.50;;;;;;2604596;46;20803;31
2023/07/11 13:36:57;;;;;;;;;;;30.60;75.80;;;;;;2585660;54;21324;31
2023/07/11 13:39:35;;;;;;;;;;;30.70;74.90;;;;;;2604015;46;19939;31
2023/07/11 13:42:12;;;;;;;;;;;30.70;73.40;;;;;;2585817;54;19934;31
2023/07/11 13:44:51;;;;;;;;;;;30.70;72.20;;;;;;2586040;54;19954;31
2023/07/11 13:47:30;;;;;;;;;;;30.60;74.20;;;;;;2585779;54;20826;31
2023/07/11 13:50:11;;;;;;;;;;;30.60;73.60;;;;;;2585673;54;19934;31
2023/07/11 13:52:45;;;;;;;;;;;30.50;72.60;;;;;;2604050;46;20080;31
2023/07/11 13:55:20;;;;;;;;;;;30.50;74.40;;;;;;2585784;54;20780;31
2023/07/11 13:58:00;;;;;;;;;;;30.50;74.40;;;;;;2604075;46;20709;31
2023/07/11 14:00:39;;;;;;;;;;;30.50;74.20;;;;;;2585709;54;19950;31
2023/07/11 14:03:15;;;;;;;;;;;30.60;74.80;;;;;;2585664;54;19939;31
2023/07/11 14:05:50;;;;;;;;;;;30.60;71.90;;;;;;2585259;54;20733;31
2023/07/11 14:08:32;;;;;;;;;;;30.50;72.70;;;;;;2594382;46;19938;31
2023/07/11 14:11:06;;;;;;;;;;;30.50;72.60;;;;;;2772990;31;21491;31
2023/07/11 14:13:43;;;;;;;;;;;30.50;74.60;;;;;;2604369;46;19934;31
2023/07/11 14:16:24;;;;;;;;;;;30.50;74.40;;;;;;2585717;54;20783;31
2023/07/11 14:19:03;;;;;;;;;;;30.50;73.10;;;;;;2594785;46;20925;31
2023/07/11 14:21:37;;;;;;;;;;;30.50;72.00;;;;;;2584595;54;19948;31
2023/07/11 14:24:13;;;;;;;;;;;30.40;73.80;;;;;;2586011;54;21901;31
2023/07/11 14:26:47;;;;;;;;;;;30.40;73.30;;;;;;2604400;46;21838;31
2023/07/11 14:29:24;;;;;;;;;;;30.40;73.30;;;;;;2584832;54;20820;31
2023/07/11 14:32:06;;;;;;;;;;;30.40;75.10;;;;;;2597645;46;20759;31
2023/07/11 14:34:47;;;;;;;;;;;30.40;74.00;;;;;;2604284;46;21082;31
2023/07/11 14:37:29;;;;;;;;;;;30.30;72.10;;;;;;2585336;54;20623;31
2023/07/11 14:40:04;;;;;;;;;;;30.30;72.70;;;;;;2585591;54;19965;31
2023/07/11 14:42:39;;;;;;;;;;;30.30;72.40;;;;;;2603942;46;19939;31
2023/07/11 14:45:16;;;;;;;;;;;30.30;73.00;;;;;;2604032;46;19941;31
2023/07/11 14:47:54;;;;;;;;;;;30.20;76.00;;;;;;2603510;46;19941;31
2023/07/11 14:50:34;;;;;;;;;;;30.20;73.80;;;;;;2585621;54;19939;31
2023/07/11 14:53:11;;;;;;;;;;;30.20;75.30;;;;;;2585346;54;19938;31
2023/07/11 14:55:44;;;;;;;;;;;27.50;72.10;;;;;;2585459;54;20815;31
2023/07/11 14:58:28;;;;;;;;;;;30.20;73.70;;;;;;2604265;46;20466;31
2023/07/11 15:01:04;;;;;;;;;;;30.20;75.40;;;;;;2590568;46;20054;31
2023/07/11 15:03:39;;;;;;;;;;;28.20;74.00;;;;;;2584790;54;20699;31
2023/07/11 15:06:38;;;;;;;;;;;30.10;74.50;;;;;;2585383;54;20036;31
2023/07/11 15:09:36;;;;;;;;;;;30.10;76.40;;;;;;2585536;54;19938;31
2023/07/11 15:12:18;;;;;;;;;;;30.10;73.30;;;;;;2584663;54;20466;31
2023/07/11 15:14:55;;;;;;;;;;;30.10;73.10;;;;;;2603596;46;20435;31
2023/07/11 15:17:35;;;;;;;;;;;30.10;72.90;;;;;;2585450;54;19935;31
2023/07/11 15:20:12;;;;;;;;;;;30.10;73.50;;;;;;2603781;46;20822;31
2023/07/11 15:22:52;;;;;;;;;;;30.10;74.20;;;;;;2585316;54;20766;31
2023/07/11 15:25:30;;;;;;;;;;;30.00;73.30;;;;;;2585858;54;22211;31
2023/07/11 15:28:08;;;;;;;;;;;30.00;74.60;;;;;;2585544;54;19956;31
2023/07/11 15:30:43;;;;;;;;;;;30.00;75.10;;;;;;2604066;46;19935;31
2023/07/11 15:33:31;;;;;;;;;;;30.00;74.60;;;;;;2604044;46;20658;31
2023/07/11 15:38:36;;;;;;;;;;;30.10;75.40;;;;;;2682812;39;20307;31
2023/07/11 15:41:17;;;;;;;;;;;30.10;74.00;;;;;;2585281;54;19984;31
2023/07/11 15:43:52;;;;;;;;;;;30.00;74.30;;;;;;2584725;54;19934;31
2023/07/11 15:46:30;;;;;;;;;;;30.00;73.20;;;;;;2584694;54;20785;31
2023/07/11 15:49:05;;;;;;;;;;;30.00;75.30;;;;;;2599300;46;20842;31
2023/07/11 15:51:42;;;;;;;;;;;30.00;75.30;;;;;;2585281;54;20825;31